ADDS METAR Data INFO
IDs: Format: Raw Decoded Include TAF

Data at: 0843 UTC 27 Jun 2017

KADS 270835Z AUTO 13004KT 10SM CLR 25/20 A3004 RMK AO2 T02450197
KADS 270815Z AUTO 14007KT 10SM CLR 25/20 A3004 RMK AO2 T02460197
KADS 270755Z AUTO 11005KT 10SM CLR 25/20 A3004 RMK AO2 T02500197
KADS 270735Z AUTO 12005KT 10SM CLR 25/20 A3005 RMK AO2 T02520198
KADS 270715Z AUTO 12006KT 10SM CLR 25/20 A3005 RMK AO2 T02540199
KADS 270655Z AUTO 13004KT 10SM CLR 25/20 A3006 RMK AO2 T02510203
KADS 270635Z AUTO 12004KT 10SM CLR 25/21 A3007 RMK AO2 T02540205
KADS 270615Z AUTO 10004KT 10SM CLR 26/21 A3007 RMK AO2 T02550207
KADS 270555Z AUTO 09004KT 10SM CLR 26/21 A3007 RMK AO2 T02570206 10288 20256 402960207
KADS 270535Z AUTO 10005KT 10SM CLR 26/21 A3007 RMK AO2 T02560207
KADS 270515Z AUTO 09004KT 10SM CLR 26/21 A3007 RMK AO2 T02590207
KADS 270455Z AUTO 09003KT 10SM BKN040 BKN048 26/21 A3007 RMK AO2 T02610206
KADS 270435Z AUTO 10003KT 10SM SCT038 26/21 A3007 RMK AO2 T02620206
KADS 270415Z AUTO 09003KT 10SM CLR 26/21 A3007 RMK AO2 T02630205
KADS 270355Z AUTO 09004KT 10SM CLR 27/21 A3006 RMK AO2 T02650205
KADS 270335Z AUTO 09004KT 10SM CLR 27/21 A3006 RMK AO2 T02680205
KADS 270315Z AUTO 09003KT 10SM CLR 27/20 A3005 RMK AO2 T02700204
KADS 270152Z 08007KT 10SM SCT060 BKN140 28/20 A3003
KADS 262347Z 08006KT 10SM FEW040 SCT060 BKN130 29/20 A3001
KADS 262247Z 10007KT 10SM BKN100 29/19 A3003
KADS 262147Z 12003KT 10SM SCT032 BKN040 28/20 A3004
KADS 262047Z 12003KT 10SM BKN032 BKN040 28/20 A3006
KADS 261947Z 03005KT 10SM BKN032 BKN040 29/21 A3009
KADS 261847Z 12003KT 10SM BKN025 BKN038 27/20 A3013
KADS 261754Z 12003KT 10SM BKN025 26/19 A3014
KADS 261654Z 12003KT 10SM BKN019 24/20 A3016
KADS 261553Z 09006KT 10SM BKN019 BKN025 OVC031 22/19 A3017
KADS 261454Z 11008KT 4SM RA HZ BR BKN019 BKN028 21/19 A3019 RMK RA VC
KADS 261035Z AUTO 11005KT 10SM CLR 23/16 A3016 RMK AO2 T02260160
KADS 261015Z AUTO 11004KT 10SM CLR 23/16 A3016 RMK AO2 T02270157
KADS 260955Z AUTO 10005KT 10SM CLR 23/16 A3016 RMK AO2 T02300155
KADS 260935Z AUTO 11006KT 10SM SCT055 23/16 A3016 RMK AO2 T02320159
KADS 260915Z AUTO 11005KT 10SM BKN055 23/17 A3016 RMK AO2 T02340170
KADS 260900Z AUTO 12004KT 10SM BKN055 24/18 A3017 RMK AO2 T02350176
KADS 260835Z AUTO 13006KT 10SM SCT055 24/18 A3017 RMK AO2 T02370176
KADS 260815Z AUTO 13008KT 10SM BKN049 24/17 A3016 RMK AO2 T02400172
KADS 260755Z AUTO 13007KT 10SM OVC049 25/17 A3017 RMK AO2 T02450171
KADS 260735Z AUTO 14008KT 10SM OVC049 25/17 A3018 RMK AO2 T02450170
KADS 260715Z AUTO 12009KT 10SM OVC049 25/17 A3018 RMK AO2 T02470171
KADS 260655Z AUTO 12008KT 10SM OVC049 25/17 A3018 RMK AO2 T02480170
KADS 260635Z AUTO 12007KT 10SM OVC049 25/17 A3018 RMK AO2 T02500168
KADS 260615Z AUTO 13007KT 10SM OVC049 25/17 A3018 RMK AO2 T02500168
KADS 260555Z AUTO 12007KT 10SM OVC047 25/17 A3018 RMK AO2 T02500167 10290 20248 403010218
KADS 260535Z AUTO 12008KT 10SM SCT047 25/17 A3018 RMK AO2 T02490167
KADS 260515Z AUTO 12007KT 10SM CLR 25/16 A3018 RMK AO2 T02500163
KADS 260455Z AUTO 12006KT 10SM CLR 25/16 A3018 RMK AO2 T02500160
KADS 260435Z AUTO 12007KT 10SM CLR 25/16 A3019 RMK AO2 T02510157
KADS 260415Z AUTO 10007KT 10SM CLR 25/16 A3019 RMK AO2 T02530158
KADS 260355Z AUTO 10005KT 10SM CLR 25/16 A3019 RMK AO2 T02520160
KADS 260335Z AUTO 10004KT 10SM CLR 26/16 A3019 RMK AO2 T02550161
KADS 260315Z AUTO 10006KT 10SM CLR 26/17 A3018 RMK AO2 T02590165
KADS 252347Z 08009KT 13SM SKC 29/14 A3012
KADS 252250Z 06008KT 13SM SKC 29/16 A3013
KADS 252159Z 07006KT 13SM SKC 30/14 A3015
KADS 252047Z 02008KT 13SM SKC 29/15 A3017


Page loaded:  08:43 UTC  |   01:43 AM Pacific  |   02:43 AM Mountain  |   03:43 AM Central  |   04:43 AM Eastern

 

ADVISORIES

FORECASTS

FORECASTS

OBSERVATIONS

USER TOOLS

ABOUT US